Time;durP1;ratioP1;P1;durP2;ratioP2;P2;SDS_P1;SDS_P2;PMS_P1;PMS_P2;Temp;Humidity;BMP_temperature;BMP_pressure;BME280_temperature;BME280_humidity;BME280_pressure;Samples;Min_cycle;Max_cycle;Signal;HPM_P1;HPM_P2
2023/05/12 00:01:34;;;;;;;3.62;2.65;;;13.60;90.60;;;;;;10947336;32;20081;-72
2023/05/12 00:07:36;;;;;;;5.07;3.47;;;13.50;90.60;;;;;;10932243;32;20031;-73
2023/05/12 00:13:38;;;;;;;4.47;2.70;;;13.50;90.60;;;;;;10931913;32;20039;-71
2023/05/12 00:19:42;;;;;;;3.83;2.53;;;13.60;90.70;;;;;;10934011;32;20393;-71
2023/05/12 00:25:45;;;;;;;4.97;2.97;;;13.60;90.70;;;;;;10946523;32;20034;-74
2023/05/12 00:31:47;;;;;;;3.95;2.95;;;13.60;90.70;;;;;;10945928;32;20023;-73
2023/05/12 00:37:49;;;;;;;4.05;2.75;;;13.60;90.70;;;;;;10945670;32;20035;-73
2023/05/12 00:43:51;;;;;;;3.05;2.37;;;13.60;90.70;;;;;;10946027;32;20423;-74
2023/05/12 00:49:54;;;;;;;4.85;3.28;;;13.60;90.80;;;;;;10945641;32;20059;-72
2023/05/12 00:55:56;;;;;;;2.72;1.95;;;13.70;90.70;;;;;;10945554;32;20318;-73
2023/05/12 01:02:00;;;;;;;3.15;2.60;;;13.70;90.70;;;;;;10944702;32;20390;-72
2023/05/12 01:08:03;;;;;;;4.68;3.87;;;13.70;90.60;;;;;;10944463;32;20041;-71
2023/05/12 01:14:05;;;;;;;5.93;3.75;;;13.70;90.60;;;;;;10927047;32;20031;-73
2023/05/12 01:20:10;;;;;;;3.00;2.55;;;13.60;90.60;;;;;;10944087;32;20091;-73
2023/05/12 01:26:15;;;;;;;4.87;3.95;;;13.60;90.70;;;;;;10943169;32;20049;-74
2023/05/12 01:32:18;;;;;;;4.68;4.18;;;13.70;90.70;;;;;;10942897;32;20030;-74
2023/05/12 01:38:20;;;;;;;4.40;3.08;;;13.60;90.70;;;;;;10943913;32;20019;-72
2023/05/12 01:44:22;;;;;;;4.75;2.47;;;13.60;90.70;;;;;;10928737;32;20035;-74
2023/05/12 01:50:24;;;;;;;3.80;2.08;;;13.60;90.80;;;;;;10927913;32;20358;-73
2023/05/12 01:56:27;;;;;;;3.90;2.72;;;13.60;90.70;;;;;;10926292;32;20030;-72
2023/05/12 02:02:32;;;;;;;5.22;3.30;;;13.60;90.60;;;;;;10942619;32;20034;-75
2023/05/12 02:08:34;;;;;;;3.92;2.45;;;13.60;90.60;;;;;;10943045;32;20058;-72
2023/05/12 02:14:37;;;;;;;4.65;3.20;;;13.50;90.60;;;;;;10941714;32;20025;-72
2023/05/12 02:20:39;;;;;;;4.70;3.33;;;13.60;90.70;;;;;;10940171;32;20022;-74
2023/05/12 02:26:41;;;;;;;4.55;3.17;;;13.60;90.70;;;;;;10941389;32;20436;-72
2023/05/12 02:32:44;;;;;;;3.08;2.28;;;13.60;90.60;;;;;;10937445;32;20027;-74
2023/05/12 02:38:46;;;;;;;2.62;1.98;;;13.60;90.60;;;;;;10940069;32;20027;-74
2023/05/12 02:44:49;;;;;;;2.65;2.08;;;13.60;90.60;;;;;;10941531;32;20443;-75
2023/05/12 02:50:52;;;;;;;2.53;2.17;;;13.60;90.60;;;;;;10936690;32;20031;-75
2023/05/12 02:56:56;;;;;;;2.60;2.22;;;13.60;90.70;;;;;;10924485;32;20421;-74
2023/05/12 03:02:58;;;;;;;4.28;3.15;;;13.60;90.70;;;;;;10945472;32;20030;-74
2023/05/12 03:09:02;;;;;;;3.03;2.12;;;13.70;90.60;;;;;;10945573;32;20027;-74
2023/05/12 03:15:05;;;;;;;4.82;2.83;;;13.60;90.50;;;;;;10948527;32;20058;-73
2023/05/12 03:21:07;;;;;;;3.03;2.10;;;13.60;90.60;;;;;;10948160;32;20393;-73
2023/05/12 03:27:09;;;;;;;2.42;2.00;;;13.60;90.60;;;;;;10948503;32;20019;-73
2023/05/12 03:33:12;;;;;;;4.55;3.65;;;13.60;90.60;;;;;;10946680;32;20302;-74
2023/05/12 03:39:14;;;;;;;3.50;2.78;;;13.50;90.60;;;;;;10947538;32;20019;-73
2023/05/12 03:45:16;;;;;;;4.72;3.53;;;13.60;90.70;;;;;;10931514;32;20035;-73
2023/05/12 03:51:18;;;;;;;5.97;4.60;;;13.60;90.70;;;;;;10933597;32;20031;-73
2023/05/12 03:57:20;;;;;;;7.68;5.00;;;13.60;90.70;;;;;;10944738;32;20037;-73
2023/05/12 04:03:22;;;;;;;5.45;4.70;;;13.50;90.70;;;;;;10946096;32;20061;-75
2023/05/12 04:09:25;;;;;;;6.87;4.72;;;13.60;90.80;;;;;;10932573;32;20389;-73
2023/05/12 04:15:27;;;;;;;4.03;2.53;;;13.50;90.80;;;;;;10944070;32;20054;-74
2023/05/12 04:21:29;;;;;;;5.32;2.92;;;13.60;90.90;;;;;;10932058;32;20019;-74
2023/05/12 04:27:31;;;;;;;4.90;3.25;;;13.70;90.80;;;;;;10929483;32;20035;-74
2023/05/12 04:34:05;;;;;;;5.47;3.37;;;13.80;90.70;;;;;;10945040;32;20306;-74
2023/05/12 04:40:08;;;;;;;5.82;4.00;;;13.80;90.50;;;;;;10945485;32;20368;-74
2023/05/12 04:46:17;;;;;;;3.95;2.83;;;13.80;90.50;;;;;;10943571;32;20022;-74
2023/05/12 04:52:21;;;;;;;4.68;3.28;;;13.80;90.60;;;;;;10943403;32;20050;-74
2023/05/12 04:58:23;;;;;;;4.15;2.78;;;13.80;90.50;;;;;;10944338;32;20011;-73
2023/05/12 05:04:25;;;;;;;3.62;2.25;;;13.90;90.40;;;;;;10943593;32;20034;-74
2023/05/12 05:10:27;;;;;;;2.92;1.98;;;14.00;90.30;;;;;;10929215;32;20026;-73
2023/05/12 05:16:29;;;;;;;4.22;2.92;;;14.00;90.30;;;;;;10943613;32;20333;-74
2023/05/12 05:22:35;;;;;;;6.97;3.87;;;14.00;90.30;;;;;;10940516;32;20031;-72
2023/05/12 05:28:38;;;;;;;6.95;4.35;;;14.00;90.20;;;;;;10928275;32;20023;-73
2023/05/12 05:34:44;;;;;;;5.50;3.50;;;13.90;90.20;;;;;;10931864;32;20246;-73
2023/05/12 05:40:47;;;;;;;5.55;3.85;;;13.90;90.30;;;;;;10942224;32;20053;-73
2023/05/12 05:46:49;;;;;;;6.87;4.03;;;13.90;90.20;;;;;;10943450;32;20046;-74
2023/05/12 05:52:53;;;;;;;6.12;4.68;;;13.90;90.30;;;;;;10942145;32;20431;-72
2023/05/12 05:58:56;;;;;;;8.50;6.40;;;13.90;90.30;;;;;;10942792;32;20393;-72
2023/05/12 06:04:59;;;;;;;7.70;6.22;;;13.90;90.30;;;;;;10941595;32;20065;-71
2023/05/12 06:11:01;;;;;;;8.73;6.87;;;13.80;90.40;;;;;;10909360;32;20050;-72
2023/05/12 06:17:03;;;;;;;6.05;4.72;;;13.80;90.50;;;;;;10903883;32;20406;-72
2023/05/12 06:23:08;;;;;;;7.22;5.60;;;13.70;90.50;;;;;;10891443;32;20051;-74
2023/05/12 06:29:10;;;;;;;7.53;4.95;;;13.70;90.60;;;;;;10904874;32;20386;-73
2023/05/12 06:35:13;;;;;;;6.70;4.15;;;13.70;90.60;;;;;;10891787;32;20023;-74
2023/05/12 06:41:14;;;;;;;4.30;2.92;;;13.70;90.70;;;;;;10899107;32;20066;-74
2023/05/12 06:47:21;;;;;;;6.90;4.30;;;13.70;90.60;;;;;;10897696;32;20049;-72
2023/05/12 06:53:24;;;;;;;6.30;4.43;;;13.80;90.50;;;;;;10907256;32;20015;-72
2023/05/12 06:59:28;;;;;;;6.55;4.47;;;13.80;90.40;;;;;;10906627;32;20050;-72
2023/05/12 07:05:31;;;;;;;5.55;3.72;;;13.70;90.60;;;;;;10910568;32;20042;-78
2023/05/12 07:11:33;;;;;;;3.78;2.37;;;13.80;90.60;;;;;;10907875;32;20053;-75
2023/05/12 07:17:35;;;;;;;4.28;2.60;;;13.80;90.60;;;;;;10910049;32;20385;-72
2023/05/12 07:23:37;;;;;;;5.10;3.40;;;13.80;90.60;;;;;;10896409;32;20046;-74
2023/05/12 07:29:40;;;;;;;6.60;4.40;;;13.80;90.70;;;;;;10909319;32;20050;-73
2023/05/12 07:35:42;;;;;;;4.00;2.47;;;13.80;90.70;;;;;;10906267;32;20046;-73
2023/05/12 07:41:44;;;;;;;4.28;3.70;;;13.80;90.70;;;;;;10907509;32;20028;-74
2023/05/12 07:47:47;;;;;;;10.52;6.90;;;13.80;90.70;;;;;;10909541;32;20383;-73
2023/05/12 07:54:07;;;;;;;6.87;4.18;;;13.80;90.80;;;;;;10683647;27;7509392;-74
2023/05/12 08:00:14;;;;;;;5.93;3.87;;;13.80;90.90;;;;;;10909694;32;20046;-76
2023/05/12 08:06:46;;;;;;;6.70;4.60;;;13.80;90.90;;;;;;10896316;32;20412;-76
2023/05/12 08:12:48;;;;;;;3.47;2.70;;;13.80;90.90;;;;;;10895550;32;20394;-76
2023/05/12 08:18:50;;;;;;;3.40;2.28;;;13.90;90.90;;;;;;10893784;32;20054;-74
2023/05/12 08:24:52;;;;;;;4.07;2.78;;;13.90;91.00;;;;;;10906993;32;20097;-74
2023/05/12 08:30:54;;;;;;;5.72;3.30;;;13.90;91.00;;;;;;10893613;32;20031;-74
2023/05/12 08:37:24;;;;;;;2.97;2.00;;;14.00;91.00;;;;;;10907968;32;20011;-75
2023/05/12 08:43:36;;;;;;;3.45;2.20;;;14.10;91.00;;;;;;10907104;32;20069;-74
2023/05/12 08:49:41;;;;;;;2.33;1.77;;;14.10;90.90;;;;;;10904829;32;20313;-74
2023/05/12 08:55:45;;;;;;;2.53;2.00;;;14.10;90.90;;;;;;10907742;32;20291;-73
2023/05/12 09:01:48;;;;;;;2.83;1.92;;;14.10;91.00;;;;;;10894215;32;20283;-73
2023/05/12 09:07:53;;;;;;;3.92;2.40;;;14.00;91.00;;;;;;10888598;32;20401;-72
2023/05/12 09:14:12;;;;;;;6.90;2.50;;;14.10;91.00;;;;;;10907264;32;20335;-72
2023/05/12 09:20:15;;;;;;;4.45;2.50;;;14.10;91.00;;;;;;10886936;32;20035;-73
2023/05/12 09:26:17;;;;;;;5.93;3.03;;;14.10;91.00;;;;;;10901575;32;20050;-73
2023/05/12 09:32:39;;;;;;;6.78;3.58;;;14.10;91.00;;;;;;10888496;32;20023;-72
2023/05/12 09:38:41;;;;;;;8.05;3.95;;;14.20;91.00;;;;;;10904977;32;20042;-74
2023/05/12 09:44:45;;;;;;;3.00;2.17;;;14.20;91.10;;;;;;10902057;32;20027;-73
2023/05/12 09:50:50;;;;;;;6.78;2.92;;;14.20;91.00;;;;;;10904642;32;20405;-72
2023/05/12 09:56:53;;;;;;;5.28;3.45;;;14.20;91.00;;;;;;10904400;32;20037;-72
2023/05/12 10:02:56;;;;;;;7.80;4.60;;;14.30;91.20;;;;;;10900983;32;20055;-71
2023/05/12 10:09:18;;;;;;;7.00;4.93;;;14.50;91.20;;;;;;10904026;32;20038;-72
2023/05/12 10:15:23;;;;;;;3.58;2.97;;;14.70;91.00;;;;;;10905140;32;20023;-71
2023/05/12 10:21:26;;;;;;;5.55;4.20;;;14.70;90.90;;;;;;10890575;32;20047;-73
2023/05/12 10:27:31;;;;;;;3.47;2.75;;;14.90;90.90;;;;;;10890372;32;20334;-73
2023/05/12 10:33:33;;;;;;;5.93;4.93;;;15.00;90.60;;;;;;10903798;32;20344;-73
2023/05/12 10:39:45;;;;;;;3.90;3.00;;;15.10;90.60;;;;;;10889631;32;20053;-72
2023/05/12 10:46:06;;;;;;;4.40;3.20;;;15.20;90.50;;;;;;10889809;32;20035;-73
2023/05/12 10:52:11;;;;;;;2.97;2.53;;;15.50;90.50;;;;;;10903242;32;20015;-73
2023/05/12 10:58:16;;;;;;;4.25;3.50;;;15.80;90.00;;;;;;10901966;32;20015;-72
2023/05/12 11:04:21;;;;;;;3.92;2.42;;;16.00;89.90;;;;;;10889092;32;20031;-72
2023/05/12 11:10:23;;;;;;;5.75;4.07;;;16.00;89.70;;;;;;10900800;32;20019;-72
2023/05/12 11:16:25;;;;;;;3.65;2.85;;;16.00;89.60;;;;;;10901652;32;20082;-73
2023/05/12 11:22:27;;;;;;;3.35;2.85;;;16.00;89.40;;;;;;10903478;32;20023;-72
2023/05/12 11:28:45;;;;;;;4.65;3.25;;;15.80;89.50;;;;;;10893758;32;20035;-72
2023/05/12 11:35:28;;;;;;;3.37;2.58;;;15.80;89.60;;;;;;10909508;32;20011;-72
2023/05/12 11:41:32;;;;;;;4.90;3.62;;;15.70;89.40;;;;;;10831028;32;20315;-72
2023/05/12 11:48:13;;;;;;;3.35;2.58;;;15.80;89.30;;;;;;10831203;32;20062;-73
2023/05/12 11:54:15;;;;;;;3.08;2.37;;;16.00;89.40;;;;;;10830580;32;20093;-72
2023/05/12 12:00:31;;;;;;;3.35;2.58;;;16.20;89.10;;;;;;10830088;32;20024;-72
2023/05/12 12:06:44;;;;;;;6.18;4.45;;;16.20;89.00;;;;;;10817715;32;20028;-73
2023/05/12 12:12:46;;;;;;;4.15;3.00;;;16.20;88.90;;;;;;10837960;32;20051;-72
2023/05/12 12:18:49;;;;;;;7.80;4.07;;;16.00;89.00;;;;;;10894583;32;20029;-74
2023/05/12 12:24:54;;;;;;;11.27;5.72;;;15.90;89.40;;;;;;10907627;32;20046;-72
2023/05/12 12:31:03;;;;;;;7.05;4.12;;;15.90;89.70;;;;;;10889614;32;20031;-72
2023/05/12 12:37:08;;;;;;;3.50;2.67;;;16.00;89.80;;;;;;10906388;32;20077;-74
2023/05/12 12:43:10;;;;;;;4.18;2.78;;;16.20;89.50;;;;;;10907013;32;20064;-71
2023/05/12 12:49:12;;;;;;;4.75;3.20;;;16.30;89.30;;;;;;10903874;32;20020;-72
2023/05/12 12:55:14;;;;;;;3.30;2.35;;;16.20;89.40;;;;;;10889955;32;20054;-73
2023/05/12 13:01:16;;;;;;;3.12;2.47;;;16.20;89.40;;;;;;10888928;32;20054;-73
2023/05/12 13:07:18;;;;;;;4.82;3.33;;;16.20;89.40;;;;;;10904845;32;20030;-75
2023/05/12 13:13:23;;;;;;;4.20;3.37;;;16.20;89.70;;;;;;10892143;32;20030;-71
2023/05/12 13:19:25;;;;;;;6.72;4.15;;;16.40;89.80;;;;;;10901627;32;20015;-74
2023/05/12 13:25:27;;;;;;;5.62;3.42;;;16.70;89.40;;;;;;10905421;32;20007;-73
2023/05/12 13:31:31;;;;;;;4.50;3.22;;;17.00;89.60;;;;;;10891781;32;20027;-72
2023/05/12 13:37:36;;;;;;;4.32;3.17;;;17.30;88.80;;;;;;10905329;32;20043;-71
2023/05/12 13:43:40;;;;;;;4.32;2.72;;;17.20;88.60;;;;;;10906108;32;20295;-74
2023/05/12 13:49:45;;;;;;;3.83;2.33;;;17.20;88.70;;;;;;10904741;32;20019;-73
2023/05/12 13:55:49;;;;;;;3.62;2.40;;;17.20;88.60;;;;;;10905239;32;20037;-73
2023/05/12 14:01:59;;;;;;;3.85;2.65;;;17.20;88.80;;;;;;10903054;32;20041;-73
2023/05/12 14:08:03;;;;;;;5.10;3.25;;;17.00;88.50;;;;;;10902563;32;20031;-73
2023/05/12 14:14:08;;;;;;;3.85;2.50;;;17.00;88.50;;;;;;10905310;32;20412;-75
2023/05/12 14:20:10;;;;;;;3.40;2.70;;;17.10;88.20;;;;;;10905307;32;20053;-74
2023/05/12 14:26:12;;;;;;;2.58;2.17;;;17.20;87.60;;;;;;10905031;32;20019;-72
2023/05/12 14:32:16;;;;;;;2.80;2.10;;;17.40;86.80;;;;;;10890177;32;20041;-71
2023/05/12 14:38:21;;;;;;;4.10;2.62;;;17.70;86.50;;;;;;10890020;32;20027;-73
2023/05/12 14:44:26;;;;;;;2.13;1.93;;;17.70;86.10;;;;;;10903250;32;20074;-73
2023/05/12 14:50:30;;;;;;;3.70;2.53;;;17.80;86.20;;;;;;10902274;32;20027;-72
2023/05/12 14:56:35;;;;;;;3.35;2.47;;;17.70;86.30;;;;;;10901160;32;20046;-71
2023/05/12 15:02:38;;;;;;;3.97;2.78;;;17.60;86.30;;;;;;10910442;32;20058;-72
2023/05/12 15:09:13;;;;;;;2.92;2.22;;;17.50;86.50;;;;;;10911721;32;20020;-72
2023/05/12 15:15:15;;;;;;;3.80;2.50;;;17.40;86.10;;;;;;10910886;32;20050;-72
2023/05/12 15:21:17;;;;;;;5.90;3.90;;;17.30;85.70;;;;;;10896517;32;20063;-71
2023/05/12 15:27:18;;;;;;;6.50;4.85;;;17.30;84.80;;;;;;10909905;32;20349;-71
2023/05/12 15:33:23;;;;;;;4.72;3.12;;;17.20;84.70;;;;;;10910358;32;20038;-72
2023/05/12 15:39:25;;;;;;;4.62;3.62;;;17.20;84.20;;;;;;10909389;32;20042;-72
2023/05/12 15:46:10;;;;;;;4.47;3.03;;;17.20;84.20;;;;;;10909028;32;20039;-71
2023/05/12 15:52:12;;;;;;;5.30;3.28;;;17.30;84.00;;;;;;10899393;27;20468;-72
2023/05/12 15:58:19;;;;;;;3.67;2.70;;;17.20;84.10;;;;;;10909794;32;20066;-73
2023/05/12 16:04:28;;;;;;;4.75;1.90;;;17.20;84.20;;;;;;10902954;32;20020;-71
2023/05/12 16:10:30;;;;;;;2.37;2.17;;;17.00;84.30;;;;;;10907649;32;20015;-71
2023/05/12 16:16:32;;;;;;;3.03;2.22;;;17.00;84.20;;;;;;10908181;32;20030;-71
2023/05/12 16:22:34;;;;;;;4.45;3.03;;;17.00;84.00;;;;;;10891899;32;20057;-72
2023/05/12 16:28:37;;;;;;;6.78;2.90;;;17.00;83.90;;;;;;10908395;32;20369;-71
2023/05/12 16:34:51;;;;;;;5.40;2.25;;;17.00;83.90;;;;;;10907979;32;20294;-71
2023/05/12 16:40:54;;;;;;;5.37;2.03;;;17.00;83.70;;;;;;10908653;32;20386;-71
2023/05/12 16:46:56;;;;;;;4.10;2.33;;;16.90;83.60;;;;;;10907685;32;20081;-71
2023/05/12 16:52:59;;;;;;;4.00;2.40;;;16.80;84.00;;;;;;10906839;32;20023;-73
2023/05/12 16:59:02;;;;;;;2.08;1.42;;;16.70;84.20;;;;;;10907290;32;20329;-71
2023/05/12 17:05:07;;;;;;;8.63;2.47;;;16.70;84.20;;;;;;10905053;32;20058;-72
2023/05/12 17:11:09;;;;;;;5.00;2.35;;;16.70;84.40;;;;;;10903450;32;20050;-72
2023/05/12 17:17:11;;;;;;;4.55;2.58;;;16.80;84.50;;;;;;10907213;32;20038;-71
2023/05/12 17:23:15;;;;;;;2.42;1.75;;;16.70;84.60;;;;;;10906515;32;20288;-72
2023/05/12 17:29:26;;;;;;;5.32;1.98;;;16.70;84.60;;;;;;10906745;32;20318;-70
2023/05/12 17:35:28;;;;;;;3.22;1.55;;;16.80;84.60;;;;;;10905396;32;20440;-71
2023/05/12 17:41:30;;;;;;;2.47;1.08;;;16.70;84.30;;;;;;10905720;32;20024;-71
2023/05/12 17:47:33;;;;;;;3.10;1.42;;;16.60;84.40;;;;;;10904069;32;20061;-71
2023/05/12 17:53:35;;;;;;;3.50;1.33;;;16.50;84.40;;;;;;10905013;32;20333;-72
2023/05/12 17:59:37;;;;;;;2.22;1.30;;;16.50;84.60;;;;;;10903934;32;20073;-72
2023/05/12 18:05:39;;;;;;;1.55;1.00;;;16.50;84.80;;;;;;10902620;32;20050;-71
2023/05/12 18:11:42;;;;;;;5.10;1.48;;;16.50;84.90;;;;;;10902637;32;20046;-72
2023/05/12 18:17:45;;;;;;;1.05;0.90;;;16.50;85.00;;;;;;10905295;32;20058;-71
2023/05/12 18:23:47;;;;;;;3.42;1.87;;;16.40;85.00;;;;;;10900312;32;20432;-72
2023/05/12 18:29:49;;;;;;;1.05;0.95;;;16.40;85.10;;;;;;10905578;32;20015;-72
2023/05/12 18:35:51;;;;;;;1.37;1.10;;;16.30;85.30;;;;;;10903862;32;20008;-71
2023/05/12 18:41:53;;;;;;;3.58;1.90;;;16.30;85.20;;;;;;10904247;32;20016;-72
2023/05/12 18:47:56;;;;;;;2.70;1.95;;;16.20;85.10;;;;;;10902321;32;20294;-72
2023/05/12 18:53:58;;;;;;;3.40;2.08;;;16.20;85.20;;;;;;10902729;32;20394;-72
2023/05/12 19:00:00;;;;;;;1.35;1.25;;;16.20;85.30;;;;;;10898603;32;20440;-71
2023/05/12 19:06:04;;;;;;;2.72;2.08;;;16.20;85.30;;;;;;10862747;32;20058;-71
2023/05/12 19:12:10;;;;;;;2.25;1.65;;;16.20;85.40;;;;;;10866258;32;20054;-72
2023/05/12 19:18:12;;;;;;;5.12;2.22;;;16.20;85.60;;;;;;10865050;32;20342;-72
2023/05/12 19:24:15;;;;;;;3.08;2.28;;;16.20;85.70;;;;;;10866820;32;20284;-72
2023/05/12 19:30:17;;;;;;;4.07;2.12;;;16.20;85.90;;;;;;10865004;32;20335;-72
2023/05/12 19:36:19;;;;;;;2.55;1.95;;;16.10;86.00;;;;;;10866767;32;20023;-72
2023/05/12 19:42:21;;;;;;;2.05;1.58;;;16.20;86.00;;;;;;10864135;32;20011;-72
2023/05/12 19:49:05;;;;;;;4.37;1.60;;;16.10;86.20;;;;;;10866611;32;20043;-73
2023/05/12 19:55:15;;;;;;;1.95;1.50;;;16.10;86.20;;;;;;10868419;32;20122;-72
2023/05/12 20:01:20;;;;;;;2.08;1.42;;;16.10;86.10;;;;;;10869513;32;20073;-72
2023/05/12 20:07:26;;;;;;;2.22;2.00;;;16.10;86.10;;;;;;10871671;32;20036;-72
2023/05/12 20:14:00;;;;;;;3.20;2.10;;;16.00;86.10;;;;;;10868598;32;20028;-73
2023/05/12 20:20:03;;;;;;;3.70;2.05;;;16.00;86.20;;;;;;10867641;32;20023;-72
2023/05/12 20:26:06;;;;;;;3.08;1.95;;;16.00;86.30;;;;;;10871785;32;20023;-71
2023/05/12 20:32:26;;;;;;;4.20;1.73;;;15.90;86.10;;;;;;10871611;32;20016;-72
2023/05/12 20:38:30;;;;;;;2.33;2.03;;;15.80;86.20;;;;;;10866930;32;20420;-72
2023/05/12 20:45:12;;;;;;;5.75;4.10;;;15.80;86.40;;;;;;10871097;32;20011;-71
2023/05/12 20:51:19;;;;;;;4.22;2.92;;;15.80;86.50;;;;;;10869681;32;20032;-72
2023/05/12 20:57:21;;;;;;;3.85;2.10;;;15.70;86.70;;;;;;10864529;32;20028;-72
2023/05/12 21:03:25;;;;;;;2.35;1.70;;;15.70;86.60;;;;;;10869287;32;20019;-72
2023/05/12 21:09:27;;;;;;;4.03;2.72;;;15.80;86.60;;;;;;10867015;32;20042;-72
2023/05/12 21:15:59;;;;;;;3.35;2.42;;;15.80;86.40;;;;;;10868869;32;20023;-72
2023/05/12 21:22:06;;;;;;;2.62;2.40;;;15.70;86.70;;;;;;10787313;33;20020;-72
2023/05/12 21:28:10;;;;;;;4.75;2.20;;;15.70;86.80;;;;;;10791617;33;20339;-72
2023/05/12 21:34:12;;;;;;;2.67;1.95;;;15.80;86.60;;;;;;10791245;33;20331;-72
2023/05/12 21:40:15;;;;;;;1.65;1.35;;;15.80;86.50;;;;;;10789669;33;20047;-72
2023/05/12 21:46:17;;;;;;;2.87;2.00;;;15.80;86.60;;;;;;10788828;33;20020;-72
2023/05/12 21:52:20;;;;;;;4.07;2.47;;;15.80;86.50;;;;;;10789916;32;20075;-72
2023/05/12 21:58:22;;;;;;;2.78;2.25;;;15.80;86.60;;;;;;10834379;32;20016;-72
2023/05/12 22:04:24;;;;;;;3.35;2.25;;;15.70;86.70;;;;;;10864559;32;20031;-72
2023/05/12 22:10:29;;;;;;;2.30;2.10;;;15.70;87.00;;;;;;10867016;32;20016;-72
2023/05/12 22:16:31;;;;;;;2.67;2.28;;;15.60;87.00;;;;;;10866934;32;20041;-73
2023/05/12 22:22:33;;;;;;;2.35;1.62;;;15.50;87.20;;;;;;10866868;32;20042;-72
2023/05/12 22:28:35;;;;;;;5.75;1.80;;;15.60;87.20;;;;;;10864014;32;20058;-71
2023/05/12 22:34:37;;;;;;;2.83;1.70;;;15.60;87.30;;;;;;10865115;32;20326;-72
2023/05/12 22:40:39;;;;;;;1.23;1.12;;;15.50;87.30;;;;;;10863275;32;20027;-72
2023/05/12 22:46:41;;;;;;;2.12;1.60;;;15.50;87.30;;;;;;10866228;32;20035;-72
2023/05/12 22:52:43;;;;;;;1.73;1.27;;;15.50;87.40;;;;;;10866176;32;20024;-72
2023/05/12 22:58:45;;;;;;;2.62;1.77;;;15.50;87.40;;;;;;10866074;32;20397;-71
2023/05/12 23:04:47;;;;;;;1.70;1.50;;;15.50;87.30;;;;;;10865876;32;20027;-72
2023/05/12 23:10:49;;;;;;;2.37;1.30;;;15.50;87.30;;;;;;10865951;32;20030;-72
2023/05/12 23:17:00;;;;;;;1.25;1.05;;;15.40;87.30;;;;;;10866246;32;20054;-72
2023/05/12 23:23:04;;;;;;;1.30;1.20;;;15.50;87.40;;;;;;10872083;32;20024;-72
2023/05/12 23:29:08;;;;;;;1.35;1.20;;;15.50;87.40;;;;;;10872434;32;20349;-73
2023/05/12 23:35:11;;;;;;;1.10;1.00;;;15.40;87.30;;;;;;10872381;32;20019;-72
2023/05/12 23:41:13;;;;;;;1.35;1.20;;;15.40;87.40;;;;;;10872334;32;20349;-72
2023/05/12 23:47:16;;;;;;;1.30;1.20;;;15.30;87.40;;;;;;10872006;32;20322;-73
2023/05/12 23:53:18;;;;;;;1.70;1.60;;;15.40;87.40;;;;;;10920630;27;20034;-72
2023/05/12 23:59:20;;;;;;;1.83;1.60;;;15.30;87.30;;;;;;10946674;32;20049;-71
